Time;durP1;ratioP1;P1;durP2;ratioP2;P2;SDS_P1;SDS_P2;PMS_P1;PMS_P2;Temp;Humidity;BMP_temperature;BMP_pressure;BME280_temperature;BME280_humidity;BME280_pressure;Samples;Min_cycle;Max_cycle;Signal;HPM_P1;HPM_P2
2023/04/11 00:01:25;;;;;;;43.90;7.43;;;11.50;99.90;;;;;;4973418;28;20026;-87
2023/04/11 00:03:51;;;;;;;47.55;7.43;;;11.50;99.90;;;;;;4974212;28;20034;-87
2023/04/11 00:06:17;;;;;;;45.42;6.70;;;11.50;99.90;;;;;;4974188;28;20035;-87
2023/04/11 00:08:43;;;;;;;39.47;6.90;;;11.60;99.90;;;;;;4973712;28;20367;-87
2023/04/11 00:11:09;;;;;;;44.20;7.38;;;11.50;99.90;;;;;;4974275;28;20498;-87
2023/04/11 00:13:35;;;;;;;42.70;6.18;;;11.50;99.90;;;;;;4974023;28;20022;-88
2023/04/11 00:16:02;;;;;;;46.72;7.82;;;11.60;99.90;;;;;;4973562;28;20034;-87
2023/04/11 00:18:27;;;;;;;45.75;7.13;;;11.50;99.90;;;;;;4974267;28;20502;-87
2023/04/11 00:20:53;;;;;;;52.42;7.13;;;11.40;99.90;;;;;;4973719;28;20034;-88
2023/04/11 00:23:19;;;;;;;53.05;7.43;;;12.00;99.90;;;;;;4974409;28;20074;-88
2023/04/11 00:25:44;;;;;;;44.80;6.47;;;11.40;99.90;;;;;;4975228;28;20027;-88
2023/04/11 00:28:10;;;;;;;46.85;6.30;;;11.30;99.90;;;;;;4974407;28;20038;-87
2023/04/11 00:30:35;;;;;;;44.40;7.57;;;11.30;99.90;;;;;;4973894;28;20050;-88
2023/04/11 00:33:01;;;;;;;41.22;5.82;;;11.30;99.90;;;;;;4973904;28;20062;-88
2023/04/11 00:35:27;;;;;;;36.17;6.80;;;11.20;99.90;;;;;;4973199;28;20037;-87
2023/04/11 00:37:54;;;;;;;35.60;5.97;;;11.10;99.90;;;;;;4974085;28;20030;-88
2023/04/11 00:40:21;;;;;;;37.83;5.50;;;11.10;99.90;;;;;;4973756;28;20546;-87
2023/04/11 00:42:47;;;;;;;43.20;5.10;;;11.10;99.90;;;;;;4973091;28;20036;-87
2023/04/11 00:45:13;;;;;;;42.35;6.75;;;11.10;99.90;;;;;;4974085;28;20035;-88
2023/04/11 00:47:39;;;;;;;34.20;5.22;;;11.20;99.90;;;;;;4972953;28;20100;-87
2023/04/11 00:50:06;;;;;;;36.88;5.20;;;12.00;99.90;;;;;;4972827;28;20114;-87
2023/04/11 00:52:32;;;;;;;33.05;6.03;;;11.10;99.90;;;;;;4973216;28;20027;-87
2023/04/11 00:55:00;;;;;;;25.05;5.28;;;11.10;99.90;;;;;;4973402;28;20027;-87
2023/04/11 00:57:25;;;;;;;31.60;5.10;;;11.10;99.90;;;;;;4973273;28;20042;-87
2023/04/11 00:59:51;;;;;;;23.95;4.28;;;12.00;99.90;;;;;;4973335;28;20022;-87
2023/04/11 01:02:17;;;;;;;28.80;4.53;;;11.20;99.90;;;;;;4973898;28;20046;-87
2023/04/11 01:04:44;;;;;;;34.83;5.50;;;11.10;99.90;;;;;;4972765;28;20046;-87
2023/04/11 01:07:10;;;;;;;24.75;5.22;;;11.10;99.90;;;;;;4973549;28;20047;-87
2023/04/11 01:09:37;;;;;;;31.60;4.40;;;11.10;99.90;;;;;;4973676;28;20089;-88
2023/04/11 01:12:05;;;;;;;32.83;5.05;;;11.20;99.90;;;;;;4972877;28;20037;-88
2023/04/11 01:14:30;;;;;;;23.40;3.78;;;11.10;99.90;;;;;;4977151;28;20475;-86
2023/04/11 01:16:57;;;;;;;25.02;4.32;;;11.10;99.90;;;;;;4977423;28;20048;-87
2023/04/11 01:19:24;;;;;;;18.63;3.33;;;11.10;99.90;;;;;;4976193;28;20118;-87
2023/04/11 01:21:52;;;;;;;21.33;4.25;;;11.10;99.90;;;;;;4977515;28;20061;-87
2023/04/11 01:24:18;;;;;;;23.08;3.90;;;11.00;99.90;;;;;;4976860;28;20026;-87
2023/04/11 01:26:44;;;;;;;14.77;3.22;;;11.00;99.90;;;;;;4977354;28;20027;-87
2023/04/11 01:29:10;;;;;;;18.33;2.95;;;11.00;99.90;;;;;;4976995;28;20043;-86
2023/04/11 01:31:35;;;;;;;24.27;3.13;;;11.00;99.90;;;;;;4976166;28;20105;-87
2023/04/11 01:34:01;;;;;;;15.02;3.40;;;10.90;99.90;;;;;;4977139;28;20031;-85
2023/04/11 01:36:29;;;;;;;18.17;2.95;;;11.00;99.90;;;;;;4977312;28;20034;-86
2023/04/11 01:38:55;;;;;;;15.57;2.65;;;10.90;99.90;;;;;;4976492;28;20027;-86
2023/04/11 01:41:22;;;;;;;22.15;3.80;;;10.90;99.90;;;;;;4977173;28;20538;-87
2023/04/11 01:43:48;;;;;;;19.08;3.63;;;11.00;99.90;;;;;;4976793;28;20143;-86
2023/04/11 01:46:14;;;;;;;15.55;3.85;;;11.00;99.90;;;;;;4976397;28;20034;-87
2023/04/11 01:48:41;;;;;;;16.92;2.72;;;11.00;99.90;;;;;;4976466;28;20509;-87
2023/04/11 01:51:07;;;;;;;15.73;2.80;;;10.90;99.90;;;;;;4977257;28;20097;-87
2023/04/11 01:53:32;;;;;;;20.08;2.88;;;11.00;99.90;;;;;;4976078;28;20038;-88
2023/04/11 01:55:58;;;;;;;22.05;3.25;;;11.00;99.90;;;;;;4976917;28;20479;-87
2023/04/11 01:58:23;;;;;;;21.70;2.85;;;10.90;99.90;;;;;;4976958;28;20035;-88
2023/04/11 02:00:49;;;;;;;14.13;3.03;;;10.90;99.90;;;;;;4975664;28;20026;-87
2023/04/11 02:03:16;;;;;;;17.83;3.50;;;10.90;99.90;;;;;;4976981;28;20054;-87
2023/04/11 02:05:41;;;;;;;14.68;3.05;;;10.90;99.90;;;;;;4976657;28;20086;-88
2023/04/11 02:08:07;;;;;;;13.10;3.25;;;10.80;99.90;;;;;;4975751;28;20035;-88
2023/04/11 02:10:33;;;;;;;21.02;3.90;;;10.90;99.90;;;;;;4976374;28;20030;-86
2023/04/11 02:12:58;;;;;;;16.60;4.03;;;10.90;99.90;;;;;;4976652;28;20051;-87
2023/04/11 02:15:24;;;;;;;18.58;2.92;;;10.80;99.90;;;;;;4975830;28;20427;-87
2023/04/11 02:17:52;;;;;;;12.25;2.50;;;10.90;99.90;;;;;;4976341;28;20035;-87
2023/04/11 02:20:20;;;;;;;12.65;2.72;;;10.80;99.90;;;;;;4976659;28;20035;-87
2023/04/11 02:22:46;;;;;;;15.65;3.08;;;10.80;99.90;;;;;;4975727;28;20042;-87
2023/04/11 02:25:11;;;;;;;10.90;2.38;;;10.80;99.90;;;;;;4975925;28;20027;-88
2023/04/11 02:27:37;;;;;;;14.02;2.70;;;10.70;99.90;;;;;;4975321;28;20066;-87
2023/04/11 02:30:06;;;;;;;12.10;2.45;;;10.70;99.90;;;;;;4976005;28;20022;-88
2023/04/11 02:32:45;;;;;;;9.77;2.47;;;10.60;99.90;;;;;;4976345;28;20118;-88
2023/04/11 02:35:11;;;;;;;20.50;2.60;;;10.60;99.90;;;;;;4975861;28;20026;-87
2023/04/11 02:37:36;;;;;;;11.52;1.98;;;10.50;99.90;;;;;;4975851;28;20039;-86
2023/04/11 02:40:03;;;;;;;16.77;2.83;;;10.60;99.90;;;;;;4975737;28;20089;-86
2023/04/11 02:42:28;;;;;;;18.77;2.38;;;10.60;99.90;;;;;;4975356;28;20033;-86
2023/04/11 02:44:57;;;;;;;10.55;1.65;;;10.50;99.90;;;;;;4975844;28;20030;-86
2023/04/11 02:47:23;;;;;;;14.43;2.25;;;10.60;99.90;;;;;;4975850;28;20026;-87
2023/04/11 02:49:48;;;;;;;14.15;2.40;;;10.50;99.90;;;;;;4975252;28;20096;-87
2023/04/11 02:52:14;;;;;;;18.08;2.90;;;10.50;99.90;;;;;;4975576;28;20086;-87
2023/04/11 02:54:40;;;;;;;13.57;2.47;;;11.50;99.90;;;;;;4975603;28;20019;-86
2023/04/11 02:57:06;;;;;;;10.75;3.35;;;10.50;99.90;;;;;;4974722;28;20061;-86
2023/04/11 02:59:31;;;;;;;15.95;2.63;;;10.40;99.90;;;;;;4975633;28;20050;-87
2023/04/11 03:01:58;;;;;;;9.38;2.58;;;10.50;99.90;;;;;;4975932;28;20023;-88
2023/04/11 03:04:23;;;;;;;13.32;2.38;;;10.40;99.90;;;;;;4975235;28;20023;-88
2023/04/11 03:06:49;;;;;;;15.88;2.58;;;10.40;99.90;;;;;;4975355;28;20026;-88
2023/04/11 03:09:15;;;;;;;22.55;2.45;;;10.40;99.90;;;;;;4975797;28;20430;-87
2023/04/11 03:11:40;;;;;;;10.38;2.22;;;10.40;99.90;;;;;;4975203;28;20110;-88
2023/04/11 03:14:09;;;;;;;13.90;2.17;;;10.40;99.90;;;;;;4975785;28;20027;-88
2023/04/11 03:16:35;;;;;;;16.73;2.60;;;10.30;99.90;;;;;;4974953;28;20073;-88
2023/04/11 03:19:00;;;;;;;13.48;2.70;;;11.10;99.90;;;;;;4974958;28;20495;-86
2023/04/11 03:21:26;;;;;;;10.52;2.17;;;10.30;99.90;;;;;;4975388;28;20035;-88
2023/04/11 03:23:52;;;;;;;6.75;1.90;;;10.30;99.90;;;;;;4974278;28;20107;-86
2023/04/11 03:26:18;;;;;;;11.13;2.30;;;10.30;99.90;;;;;;4975304;28;20030;-87
2023/04/11 03:28:44;;;;;;;10.45;2.60;;;10.30;99.90;;;;;;4975183;28;20050;-87
2023/04/11 03:31:10;;;;;;;12.73;2.20;;;10.30;99.90;;;;;;4974460;28;20554;-87
2023/04/11 03:33:36;;;;;;;6.53;2.05;;;10.20;99.90;;;;;;4974727;28;20069;-88
2023/04/11 03:36:03;;;;;;;19.55;2.42;;;10.90;99.90;;;;;;4974187;28;20058;-87
2023/04/11 03:38:28;;;;;;;10.57;2.45;;;10.30;99.90;;;;;;4974337;28;20121;-86
2023/04/11 03:40:54;;;;;;;13.93;2.15;;;10.30;99.90;;;;;;4974785;28;20047;-87
2023/04/11 03:43:20;;;;;;;16.10;2.50;;;10.30;99.90;;;;;;4975311;28;20077;-86
2023/04/11 03:45:45;;;;;;;18.58;2.42;;;10.30;99.90;;;;;;4974198;28;20591;-87
2023/04/11 03:48:11;;;;;;;8.40;1.83;;;10.30;99.90;;;;;;4974345;28;20046;-87
2023/04/11 03:50:37;;;;;;;9.88;2.10;;;11.30;99.90;;;;;;4974770;28;20027;-87
2023/04/11 03:53:02;;;;;;;8.75;1.85;;;10.20;99.90;;;;;;4974169;28;20427;-87
2023/04/11 03:55:28;;;;;;;13.57;2.42;;;10.10;99.90;;;;;;4974619;28;20034;-87
2023/04/11 03:57:53;;;;;;;13.73;2.13;;;10.10;99.90;;;;;;4974486;28;20023;-87
2023/04/11 04:00:19;;;;;;;12.38;2.08;;;10.20;99.90;;;;;;4974170;28;20027;-87
2023/04/11 04:02:45;;;;;;;15.60;3.20;;;10.10;99.90;;;;;;4974510;28;20406;-88
2023/04/11 04:05:10;;;;;;;10.65;2.13;;;10.10;99.90;;;;;;4974754;28;20030;-87
2023/04/11 04:07:36;;;;;;;11.15;1.70;;;10.10;99.90;;;;;;4973533;28;20030;-86
2023/04/11 04:10:02;;;;;;;11.70;2.13;;;10.00;99.90;;;;;;4974383;28;20022;-87
2023/04/11 04:12:27;;;;;;;15.40;2.38;;;10.00;99.90;;;;;;4974540;28;20031;-86
2023/04/11 04:14:53;;;;;;;8.32;1.90;;;10.00;99.90;;;;;;4973985;28;20482;-86
2023/04/11 04:17:19;;;;;;;9.38;1.88;;;9.90;99.90;;;;;;4974354;28;20042;-87
2023/04/11 04:19:44;;;;;;;9.15;1.52;;;9.90;99.90;;;;;;4974109;28;20029;-87
2023/04/11 04:22:11;;;;;;;10.63;1.50;;;9.90;99.90;;;;;;4973732;28;20031;-87
2023/04/11 04:24:44;;;;;;;13.45;1.73;;;10.60;99.90;;;;;;4973852;28;20030;-87
2023/04/11 04:27:12;;;;;;;9.70;1.55;;;9.90;99.90;;;;;;4973486;28;20042;-87
2023/04/11 04:29:46;;;;;;;7.50;1.77;;;9.90;99.90;;;;;;4974079;28;20402;-87
2023/04/11 04:32:22;;;;;;;13.80;2.22;;;10.00;99.90;;;;;;4974086;28;20113;-87
2023/04/11 04:34:53;;;;;;;13.15;2.83;;;10.00;99.90;;;;;;4973542;28;20026;-86
2023/04/11 04:37:20;;;;;;;9.52;2.30;;;9.90;99.90;;;;;;4973743;28;20487;-87
2023/04/11 04:40:08;;;;;;;15.93;3.05;;;9.90;99.90;;;;;;4973886;28;20063;-87
2023/04/11 04:42:35;;;;;;;12.65;2.10;;;9.90;99.90;;;;;;4973124;28;20026;-87
2023/04/11 04:45:01;;;;;;;13.13;2.20;;;9.90;99.90;;;;;;4973782;28;20479;-87
2023/04/11 04:47:32;;;;;;;8.13;1.33;;;9.90;99.90;;;;;;4973506;28;20031;-88
2023/04/11 04:49:58;;;;;;;4.95;1.13;;;9.90;99.90;;;;;;4973231;28;20113;-87
2023/04/11 04:52:25;;;;;;;12.02;1.50;;;9.90;99.90;;;;;;4974048;28;20126;-87
2023/04/11 04:54:51;;;;;;;11.38;1.85;;;9.90;99.90;;;;;;4973825;28;20450;-86
2023/04/11 04:57:27;;;;;;;6.95;1.23;;;9.90;99.90;;;;;;4973254;28;20034;-87
2023/04/11 04:59:53;;;;;;;7.47;1.48;;;9.80;99.90;;;;;;4973291;28;20030;-87
2023/04/11 05:02:21;;;;;;;8.60;1.70;;;11.00;99.90;;;;;;4972915;28;20042;-87
2023/04/11 05:04:50;;;;;;;9.20;1.38;;;9.80;99.90;;;;;;4973381;28;20470;-87
2023/04/11 05:07:17;;;;;;;5.63;1.85;;;10.80;99.90;;;;;;4973870;28;20030;-86
2023/04/11 05:09:43;;;;;;;8.20;1.38;;;9.90;99.90;;;;;;4972858;28;20034;-87
2023/04/11 05:12:08;;;;;;;15.52;2.30;;;9.90;99.90;;;;;;4973668;28;20029;-87
2023/04/11 05:14:34;;;;;;;14.35;2.28;;;9.90;99.90;;;;;;4973411;28;20027;-87
2023/04/11 05:17:07;;;;;;;12.63;2.30;;;9.90;99.90;;;;;;4973055;28;20039;-86
2023/04/11 05:19:32;;;;;;;12.75;2.00;;;9.90;99.90;;;;;;4973541;28;20058;-88
2023/04/11 05:21:58;;;;;;;10.38;1.67;;;10.00;99.90;;;;;;4973846;28;20035;-87
2023/04/11 05:24:23;;;;;;;7.80;1.42;;;9.90;99.90;;;;;;4972894;28;20025;-87
2023/04/11 05:26:49;;;;;;;13.05;1.70;;;10.00;99.90;;;;;;4973336;28;20026;-87
2023/04/11 05:29:15;;;;;;;7.97;1.58;;;11.00;99.90;;;;;;4973379;28;20114;-86
2023/04/11 05:31:40;;;;;;;11.85;2.03;;;10.00;99.90;;;;;;4972858;28;20101;-87
2023/04/11 05:34:06;;;;;;;12.65;1.98;;;10.00;99.90;;;;;;4973531;28;20394;-87
2023/04/11 05:36:31;;;;;;;11.73;1.50;;;10.10;99.90;;;;;;4972806;28;20041;-87
2023/04/11 05:38:57;;;;;;;15.07;2.30;;;10.10;99.90;;;;;;4972620;28;20550;-87
2023/04/11 05:41:22;;;;;;;13.48;2.50;;;10.10;99.90;;;;;;4973498;28;20069;-87
2023/04/11 05:43:48;;;;;;;9.98;2.28;;;10.20;99.90;;;;;;4973100;28;20495;-87
2023/04/11 05:46:14;;;;;;;17.17;2.17;;;10.20;99.90;;;;;;4972730;28;20463;-87
2023/04/11 05:48:40;;;;;;;17.25;2.92;;;10.20;99.90;;;;;;4972997;28;20047;-87
2023/04/11 05:51:06;;;;;;;9.77;2.10;;;10.20;99.90;;;;;;4973505;28;20027;-86
2023/04/11 05:53:32;;;;;;;15.95;2.50;;;10.30;99.90;;;;;;4972439;28;20034;-87
2023/04/11 05:55:57;;;;;;;14.20;2.95;;;10.20;99.90;;;;;;4973332;28;20049;-86
2023/04/11 05:58:28;;;;;;;8.85;2.65;;;10.20;99.90;;;;;;4973413;28;20122;-87
2023/04/11 06:00:54;;;;;;;13.55;3.50;;;11.30;99.90;;;;;;4976577;28;20034;-86
2023/04/11 06:03:20;;;;;;;23.52;2.72;;;10.20;99.90;;;;;;4976887;28;20455;-86
2023/04/11 06:05:45;;;;;;;12.13;2.30;;;10.20;99.90;;;;;;4975794;28;20031;-85
2023/04/11 06:08:11;;;;;;;12.63;2.50;;;10.20;99.90;;;;;;4976685;28;20111;-87
2023/04/11 06:10:37;;;;;;;21.30;3.40;;;10.20;99.90;;;;;;4976391;28;20027;-87
2023/04/11 06:13:02;;;;;;;19.25;3.85;;;10.20;99.90;;;;;;4976050;28;20019;-88
2023/04/11 06:15:31;;;;;;;15.55;2.67;;;10.20;99.90;;;;;;4976283;28;20030;-87
2023/04/11 06:17:56;;;;;;;15.07;2.65;;;10.80;99.90;;;;;;4976749;28;20035;-88
2023/04/11 06:20:41;;;;;;;14.10;2.47;;;10.20;99.90;;;;;;4975862;28;20025;-87
2023/04/11 06:23:06;;;;;;;12.68;2.53;;;10.20;99.90;;;;;;4976427;28;20089;-87
2023/04/11 06:25:38;;;;;;;14.38;2.15;;;11.50;99.90;;;;;;4976220;28;20023;-88
2023/04/11 06:28:25;;;;;;;17.63;2.50;;;10.20;99.90;;;;;;4975949;28;20027;-87
2023/04/11 06:30:49;;;;;;;14.27;1.85;;;10.20;99.90;;;;;;4975737;28;20045;-87
2023/04/11 06:33:26;;;;;;;11.32;1.98;;;10.10;99.90;;;;;;4976207;28;20023;-87
2023/04/11 06:36:04;;;;;;;12.35;1.90;;;10.10;99.90;;;;;;4974963;28;20031;-87
2023/04/11 06:38:35;;;;;;;15.48;2.90;;;10.20;99.90;;;;;;4973300;28;20031;-87
2023/04/11 06:41:03;;;;;;;16.70;3.28;;;10.70;99.90;;;;;;4968897;28;20030;-86
2023/04/11 06:43:30;;;;;;;16.38;2.40;;;10.20;99.90;;;;;;4976011;28;20026;-87
2023/04/11 06:45:56;;;;;;;12.82;2.30;;;11.10;99.90;;;;;;4972182;28;20062;-87
2023/04/11 06:48:23;;;;;;;8.10;2.35;;;10.30;99.90;;;;;;4973733;28;20100;-87
2023/04/11 06:50:56;;;;;;;13.32;2.55;;;11.20;99.90;;;;;;4974772;28;20110;-86
2023/04/11 06:53:22;;;;;;;12.07;2.53;;;10.90;99.90;;;;;;4974960;28;20509;-87
2023/04/11 06:55:48;;;;;;;17.75;2.90;;;11.20;99.90;;;;;;4974470;28;20050;-86
2023/04/11 06:58:14;;;;;;;15.73;2.78;;;10.50;99.90;;;;;;4974573;28;20118;-87
2023/04/11 07:00:40;;;;;;;15.52;2.42;;;10.50;99.90;;;;;;4977489;28;20074;-87
2023/04/11 07:03:07;;;;;;;18.13;2.72;;;10.60;99.90;;;;;;4976905;28;20027;-86
2023/04/11 07:05:35;;;;;;;13.85;2.15;;;10.50;99.90;;;;;;4981287;28;20034;-86
2023/04/11 07:08:01;;;;;;;9.00;2.45;;;10.50;99.90;;;;;;4981484;28;20038;-87
2023/04/11 07:10:26;;;;;;;23.83;3.85;;;10.50;99.90;;;;;;4982368;28;20026;-87
2023/04/11 07:12:52;;;;;;;17.77;3.72;;;10.30;99.90;;;;;;4983286;28;20031;-86
2023/04/11 07:15:17;;;;;;;10.30;2.60;;;10.40;99.90;;;;;;4991422;28;20156;-87
2023/04/11 07:17:43;;;;;;;11.93;2.53;;;10.40;99.90;;;;;;4991078;28;20082;-86
2023/04/11 07:20:10;;;;;;;10.57;1.83;;;10.40;99.90;;;;;;4994765;28;20502;-87
2023/04/11 07:22:35;;;;;;;14.05;2.25;;;10.40;99.90;;;;;;4994941;28;20038;-87
2023/04/11 07:25:04;;;;;;;13.00;2.28;;;10.30;99.90;;;;;;4992950;28;20471;-87
2023/04/11 07:27:35;;;;;;;21.50;3.03;;;10.30;99.90;;;;;;4994761;28;20101;-87
2023/04/11 07:30:01;;;;;;;8.45;2.30;;;10.30;99.90;;;;;;4993690;28;20026;-87
2023/04/11 07:32:26;;;;;;;8.45;2.10;;;10.30;99.90;;;;;;4994724;28;20026;-86
2023/04/11 07:34:52;;;;;;;12.63;2.85;;;10.30;99.90;;;;;;4991621;28;20085;-86
2023/04/11 07:37:18;;;;;;;13.50;1.90;;;10.20;99.90;;;;;;4973320;28;20072;-87
2023/04/11 07:39:44;;;;;;;11.75;2.28;;;10.30;99.90;;;;;;4974213;28;20026;-87
2023/04/11 07:42:09;;;;;;;5.47;1.52;;;10.30;99.90;;;;;;4974567;28;20027;-87
2023/04/11 07:44:35;;;;;;;6.97;1.85;;;10.30;99.90;;;;;;4972908;28;20037;-87
2023/04/11 07:47:01;;;;;;;7.63;1.80;;;10.30;99.90;;;;;;4975019;28;20118;-87
2023/04/11 07:49:26;;;;;;;11.45;2.63;;;10.30;99.90;;;;;;4974999;28;20047;-87
2023/04/11 07:54:38;;;;;;;12.07;2.45;;;10.30;99.90;;;;;;4974822;28;20117;-88
2023/04/11 07:57:03;;;;;;;14.68;2.15;;;10.40;99.90;;;;;;4974303;28;20121;-87
2023/04/11 07:59:29;;;;;;;19.35;2.85;;;10.40;99.90;;;;;;4974300;28;20023;-87
2023/04/11 08:02:01;;;;;;;21.08;2.90;;;10.40;99.90;;;;;;4975095;28;20434;-89
2023/04/11 08:04:32;;;;;;;11.10;2.38;;;10.40;99.90;;;;;;4975650;28;20033;-90
2023/04/11 08:06:57;;;;;;;16.65;2.70;;;10.40;99.90;;;;;;4974104;28;20117;-91
2023/04/11 08:09:24;;;;;;;11.50;2.35;;;10.20;99.90;;;;;;4975551;28;20118;-92
2023/04/11 08:11:50;;;;;;;11.85;2.38;;;10.30;99.90;;;;;;4974094;28;20090;-90
2023/04/11 08:14:16;;;;;;;9.95;2.20;;;10.30;99.90;;;;;;4974280;28;20460;-91
2023/04/11 08:16:41;;;;;;;12.57;2.60;;;10.40;99.90;;;;;;4975320;28;20034;-91
2023/04/11 08:19:09;;;;;;;12.95;2.38;;;10.40;99.90;;;;;;4974529;28;20446;-90
2023/04/11 08:21:34;;;;;;;16.33;2.35;;;10.40;99.90;;;;;;4974459;28;20031;-91
2023/04/11 08:24:00;;;;;;;14.95;2.38;;;10.50;99.90;;;;;;4975372;28;20078;-90
2023/04/11 08:26:26;;;;;;;13.95;2.50;;;10.50;99.90;;;;;;4974722;28;20121;-89
2023/04/11 08:28:51;;;;;;;13.13;2.92;;;10.60;99.90;;;;;;4974688;28;20046;-90
2023/04/11 08:31:17;;;;;;;9.85;2.15;;;10.60;99.90;;;;;;4974987;28;20031;-88
2023/04/11 08:33:42;;;;;;;13.23;2.47;;;10.60;99.90;;;;;;4975961;28;20027;-88
2023/04/11 08:36:09;;;;;;;12.27;2.28;;;10.60;99.90;;;;;;4980402;28;20038;-92
2023/04/11 08:38:38;;;;;;;9.40;2.10;;;10.60;99.90;;;;;;4994642;28;20127;-92
2023/04/11 08:41:04;;;;;;;9.27;1.70;;;11.40;99.90;;;;;;4990620;28;20081;-92
2023/04/11 08:43:34;;;;;;;14.15;1.85;;;10.70;99.90;;;;;;4995154;28;20026;-92
2023/04/11 08:46:03;;;;;;;15.63;2.53;;;10.60;99.90;;;;;;5004683;28;20026;-91
2023/04/11 08:48:30;;;;;;;11.75;1.95;;;11.50;99.90;;;;;;4994231;28;20459;-92
2023/04/11 08:50:56;;;;;;;14.73;3.38;;;11.10;99.90;;;;;;4994413;28;20039;-92
2023/04/11 08:53:24;;;;;;;20.35;2.10;;;10.50;99.90;;;;;;4987257;28;20485;-93
2023/04/11 08:55:50;;;;;;;14.98;1.95;;;10.60;99.90;;;;;;4973888;28;20122;-94
2023/04/11 08:58:16;;;;;;;11.70;1.88;;;11.30;99.90;;;;;;4978948;28;20046;-91
2023/04/11 09:00:42;;;;;;;13.93;2.20;;;10.60;99.90;;;;;;4974661;28;20038;-92
2023/04/11 09:03:10;;;;;;;8.70;1.98;;;10.60;99.90;;;;;;4974033;28;20031;-92
2023/04/11 09:05:38;;;;;;;6.93;1.73;;;10.60;99.90;;;;;;4978347;28;20038;-90
2023/04/11 09:08:12;;;;;;;14.23;2.88;;;10.60;99.90;;;;;;4986679;28;20031;-90
2023/04/11 09:10:39;;;;;;;14.10;1.80;;;10.60;99.90;;;;;;4979939;28;20027;-92
2023/04/11 09:13:23;;;;;;;12.27;2.25;;;10.50;99.90;;;;;;4983158;28;20026;-91
2023/04/11 09:16:05;;;;;;;8.40;1.40;;;10.40;99.90;;;;;;4983516;28;20038;-92
2023/04/11 09:18:39;;;;;;;8.93;1.90;;;10.50;99.90;;;;;;4973637;28;20026;-89
2023/04/11 09:21:10;;;;;;;6.72;1.35;;;10.50;99.90;;;;;;4985624;28;20117;-93
2023/04/11 09:23:37;;;;;;;6.80;1.60;;;10.60;99.90;;;;;;4977181;28;20356;-92
2023/04/11 09:26:07;;;;;;;10.25;1.73;;;10.70;99.90;;;;;;4974608;28;20109;-92
2023/04/11 09:28:53;;;;;;;7.53;1.85;;;10.70;99.90;;;;;;4974584;28;20074;-93
2023/04/11 09:31:20;;;;;;;6.63;1.27;;;10.70;99.90;;;;;;4974411;28;20438;-92
2023/04/11 09:33:57;;;;;;;11.00;1.55;;;10.80;99.90;;;;;;4974755;28;20033;-91
2023/04/11 09:36:24;;;;;;;7.47;1.30;;;10.80;99.90;;;;;;4977145;28;20031;-94
2023/04/11 09:38:53;;;;;;;6.30;1.40;;;10.80;99.90;;;;;;4975668;28;20106;-91
2023/04/11 09:41:33;;;;;;;5.55;1.17;;;10.80;99.90;;;;;;4975251;28;20070;-93
2023/04/11 09:43:59;;;;;;;9.85;1.48;;;10.90;99.90;;;;;;4975277;28;20046;-92
2023/04/11 09:46:25;;;;;;;5.65;1.20;;;10.90;99.90;;;;;;4976792;28;20058;-91
2023/04/11 09:48:53;;;;;;;9.18;1.60;;;10.80;99.90;;;;;;4976086;28;20086;-93
2023/04/11 09:51:19;;;;;;;5.03;1.50;;;10.80;99.90;;;;;;4976169;28;20023;-92
2023/04/11 09:53:45;;;;;;;5.80;1.27;;;10.90;99.90;;;;;;4976739;28;20027;-92
2023/04/11 09:56:11;;;;;;;9.18;1.77;;;10.90;99.90;;;;;;4980146;28;20046;-93
2023/04/11 09:58:38;;;;;;;5.22;1.30;;;10.80;99.90;;;;;;4977823;28;20062;-93
2023/04/11 10:01:09;;;;;;;2.67;1.10;;;10.90;99.90;;;;;;4979610;28;20045;-92
2023/04/11 10:03:37;;;;;;;5.90;1.48;;;10.90;99.90;;;;;;4978502;28;20529;-93
2023/04/11 10:06:07;;;;;;;12.48;1.63;;;10.90;99.90;;;;;;4981638;28;20083;-93
2023/04/11 10:08:35;;;;;;;7.78;1.55;;;11.00;99.90;;;;;;4985828;28;20081;-93
2023/04/11 10:11:06;;;;;;;10.15;1.65;;;11.00;99.90;;;;;;4980516;28;20027;-89
2023/04/11 10:13:43;;;;;;;8.10;1.60;;;11.10;99.90;;;;;;4977230;28;20106;-91
2023/04/11 10:16:12;;;;;;;6.25;1.48;;;11.10;99.90;;;;;;4977829;28;20034;-91
2023/04/11 10:18:57;;;;;;;9.43;1.83;;;11.20;99.90;;;;;;4977552;28;20038;-94
2023/04/11 10:21:29;;;;;;;13.68;2.13;;;11.20;99.90;;;;;;4977767;28;20026;-93
2023/04/11 10:24:13;;;;;;;7.95;2.30;;;11.10;99.90;;;;;;4976388;28;20065;-92
2023/04/11 10:26:47;;;;;;;14.13;1.80;;;11.20;99.90;;;;;;4984545;28;20026;-91
2023/04/11 10:29:45;;;;;;;9.20;2.13;;;11.20;99.90;;;;;;4979455;28;20098;-92
2023/04/11 10:32:19;;;;;;;10.18;1.75;;;11.20;99.90;;;;;;4989317;28;20026;-93
2023/04/11 10:34:53;;;;;;;13.38;2.08;;;11.30;99.90;;;;;;4980616;28;20035;-93
2023/04/11 10:37:33;;;;;;;8.48;1.80;;;11.30;99.90;;;;;;4977056;28;20039;-94
2023/04/11 10:40:11;;;;;;;9.77;2.03;;;11.20;99.90;;;;;;4974955;28;20031;-93
2023/04/11 10:42:40;;;;;;;8.52;1.40;;;11.20;99.90;;;;;;4975271;28;20031;-92
2023/04/11 10:45:44;;;;;;;9.77;1.70;;;11.20;99.90;;;;;;4974699;28;20034;-94
2023/04/11 10:48:11;;;;;;;6.88;1.42;;;11.20;99.90;;;;;;4978569;28;20101;-93
2023/04/11 10:50:49;;;;;;;8.10;1.50;;;11.40;99.90;;;;;;4975958;28;20038;-93
2023/04/11 10:53:46;;;;;;;11.20;2.35;;;11.40;99.90;;;;;;4976709;28;20023;-92
2023/04/11 10:56:11;;;;;;;9.23;2.00;;;11.20;99.90;;;;;;4976478;28;20066;-93
2023/04/11 10:58:38;;;;;;;9.57;1.83;;;12.10;99.90;;;;;;4977815;28;20030;-91
2023/04/11 11:01:16;;;;;;;11.35;2.00;;;11.80;99.90;;;;;;4979639;28;20031;-91
2023/04/11 11:03:51;;;;;;;5.97;1.90;;;11.10;99.90;;;;;;4982356;28;20030;-91
2023/04/11 11:06:17;;;;;;;10.98;2.55;;;11.20;99.90;;;;;;4981053;28;20033;-91
2023/04/11 11:08:45;;;;;;;13.55;1.95;;;11.30;99.90;;;;;;4983291;28;20113;-89
2023/04/11 11:11:12;;;;;;;15.77;1.95;;;11.30;99.90;;;;;;4976613;28;20026;-93
2023/04/11 11:13:44;;;;;;;12.68;2.10;;;11.30;99.90;;;;;;4977060;28;20030;-90
2023/04/11 11:16:28;;;;;;;11.50;2.22;;;11.40;99.90;;;;;;4976516;28;20031;-90
2023/04/11 11:18:55;;;;;;;9.05;2.38;;;11.40;99.90;;;;;;4976302;28;20023;-92
2023/04/11 11:21:23;;;;;;;15.13;2.78;;;11.30;99.90;;;;;;4976430;28;20169;-91
2023/04/11 11:23:55;;;;;;;8.13;1.52;;;11.40;99.90;;;;;;4975887;28;20462;-92
2023/04/11 11:26:21;;;;;;;12.38;1.50;;;11.50;99.90;;;;;;4977098;28;20420;-91
2023/04/11 11:28:47;;;;;;;10.63;1.65;;;11.40;99.90;;;;;;4976212;28;20033;-93
2023/04/11 11:31:19;;;;;;;6.15;1.88;;;11.50;99.90;;;;;;4990164;28;20030;-92
2023/04/11 11:33:44;;;;;;;11.48;1.60;;;11.50;99.90;;;;;;4977085;28;20023;-93
2023/04/11 11:36:14;;;;;;;13.82;2.08;;;12.40;99.90;;;;;;5040262;23;20562;-93
2023/04/11 11:38:40;;;;;;;8.67;1.33;;;12.40;99.90;;;;;;4976043;28;20026;-90
2023/04/11 11:41:08;;;;;;;6.63;1.70;;;12.30;99.90;;;;;;4976002;28;20029;-91
2023/04/11 11:43:36;;;;;;;5.07;1.35;;;12.70;99.90;;;;;;4975228;28;20027;-92
2023/04/11 11:46:10;;;;;;;6.50;1.73;;;12.40;99.90;;;;;;4972252;28;20034;-93
2023/04/11 11:48:35;;;;;;;6.40;2.13;;;11.70;99.90;;;;;;4975822;28;20058;-92
2023/04/11 11:51:04;;;;;;;9.85;1.60;;;11.60;99.90;;;;;;4975705;28;20479;-90
2023/04/11 11:53:31;;;;;;;4.80;1.45;;;11.70;99.90;;;;;;4981166;28;20395;-94
2023/04/11 11:55:57;;;;;;;9.13;1.85;;;11.80;99.90;;;;;;4974371;28;20042;-90
2023/04/11 11:58:22;;;;;;;8.13;2.00;;;11.80;99.90;;;;;;4974059;28;20030;-90
2023/04/11 12:00:50;;;;;;;7.65;2.13;;;12.60;99.90;;;;;;4987270;28;20586;-90
2023/04/11 12:03:23;;;;;;;7.40;2.10;;;12.60;99.90;;;;;;4980839;28;20019;-90
2023/04/11 12:05:53;;;;;;;5.90;1.33;;;11.70;99.90;;;;;;4970170;28;20031;-91
2023/04/11 12:08:20;;;;;;;11.38;1.70;;;11.80;99.70;;;;;;4976171;28;20035;-92
2023/04/11 12:10:48;;;;;;;7.28;1.42;;;11.80;99.90;;;;;;4983744;28;20103;-91
2023/04/11 12:13:22;;;;;;;9.35;1.77;;;11.90;99.90;;;;;;4986677;28;20029;-91
2023/04/11 12:16:00;;;;;;;10.60;2.20;;;12.60;99.90;;;;;;4971392;23;20055;-91
2023/04/11 12:18:44;;;;;;;10.02;1.67;;;11.90;99.90;;;;;;4973153;28;20114;-93
2023/04/11 12:21:09;;;;;;;10.40;2.03;;;12.60;99.90;;;;;;4973766;28;20030;-94
2023/04/11 12:23:41;;;;;;;7.63;1.52;;;13.30;99.90;;;;;;4973085;28;20494;-92
2023/04/11 12:26:27;;;;;;;4.70;1.42;;;12.60;99.90;;;;;;4973731;28;20030;-93
2023/04/11 12:28:55;;;;;;;5.72;1.65;;;12.80;99.90;;;;;;4974217;28;20395;-91
2023/04/11 12:31:21;;;;;;;8.45;1.42;;;12.80;99.90;;;;;;4975425;28;20030;-91
2023/04/11 12:34:05;;;;;;;11.13;1.95;;;12.00;99.90;;;;;;4974250;28;20027;-91
2023/04/11 12:36:39;;;;;;;7.55;2.13;;;11.70;99.90;;;;;;4974105;28;20142;-91
2023/04/11 12:39:17;;;;;;;10.13;1.88;;;12.60;99.90;;;;;;4975505;28;20037;-92
2023/04/11 12:41:42;;;;;;;8.60;1.92;;;12.00;99.90;;;;;;4974887;28;20038;-92
2023/04/11 12:44:14;;;;;;;8.60;1.90;;;12.30;99.90;;;;;;4975177;28;20463;-91
2023/04/11 12:46:55;;;;;;;13.52;3.00;;;12.70;99.90;;;;;;4974545;28;20166;-92
2023/04/11 12:49:20;;;;;;;;;;;13.00;99.90;;;;;;4975370;28;20427;-89